Time;durP1;ratioP1;P1;durP2;ratioP2;P2;SDS_P1;SDS_P2;PMS_P1;PMS_P2;Temp;Humidity;BMP_temperature;BMP_pressure;BME280_temperature;BME280_humidity;BME280_pressure;Samples;Min_cycle;Max_cycle;Signal;HPM_P1;HPM_P2
2022/09/17 00:01:52;;;;;;;14.15;0.60;;;10.70;99.90;;;;;;4952918;28;20018;-89
2022/09/17 00:04:18;;;;;;;15.98;0.57;;;10.70;99.90;;;;;;4956627;28;20077;-91
2022/09/17 00:06:44;;;;;;;12.05;0.85;;;10.60;99.90;;;;;;4958792;28;20518;-92
2022/09/17 00:09:11;;;;;;;9.20;0.60;;;10.60;99.90;;;;;;4965456;28;20031;-90
2022/09/17 00:11:39;;;;;;;14.02;0.90;;;10.60;99.90;;;;;;4956508;28;20034;-91
2022/09/17 00:14:08;;;;;;;10.07;0.63;;;10.60;99.90;;;;;;4954430;28;20022;-90
2022/09/17 00:16:37;;;;;;;14.57;0.98;;;10.70;99.90;;;;;;4966798;28;20390;-90
2022/09/17 00:19:05;;;;;;;11.05;0.57;;;10.70;99.90;;;;;;4957785;28;20067;-89
2022/09/17 00:21:31;;;;;;;13.20;1.05;;;10.70;99.90;;;;;;4961608;28;20034;-90
2022/09/17 00:24:02;;;;;;;9.95;0.63;;;10.80;99.90;;;;;;4969429;28;20027;-90
2022/09/17 00:26:28;;;;;;;16.20;1.00;;;10.80;99.90;;;;;;4949574;28;20035;-90
2022/09/17 00:28:56;;;;;;;10.40;0.70;;;10.90;99.90;;;;;;4970638;28;20061;-90
2022/09/17 00:31:22;;;;;;;18.88;1.15;;;10.80;99.90;;;;;;4966682;28;20111;-90
2022/09/17 00:33:48;;;;;;;14.13;1.23;;;10.80;99.90;;;;;;4954784;28;20027;-91
2022/09/17 00:36:14;;;;;;;10.52;1.13;;;10.70;99.90;;;;;;4963048;28;20026;-91
2022/09/17 00:38:40;;;;;;;16.20;1.75;;;10.70;99.90;;;;;;4970987;28;20035;-91
2022/09/17 00:41:07;;;;;;;14.50;0.90;;;10.70;99.90;;;;;;4951521;28;20029;-90
2022/09/17 00:43:51;;;;;;;12.98;0.90;;;10.70;99.90;;;;;;4955758;28;20659;-89
2022/09/17 00:46:37;;;;;;;13.77;0.82;;;10.70;99.90;;;;;;4944776;28;20484;-91
2022/09/17 00:49:27;;;;;;;12.02;1.00;;;10.70;99.90;;;;;;4964954;28;20547;-91
2022/09/17 00:52:07;;;;;;;15.35;0.70;;;10.70;99.90;;;;;;4970525;28;20487;-91
2022/09/17 00:54:34;;;;;;;15.60;0.93;;;10.60;99.90;;;;;;4958642;28;20502;-92
2022/09/17 00:56:59;;;;;;;13.18;1.05;;;10.60;99.90;;;;;;4966098;28;20125;-90
2022/09/17 00:59:25;;;;;;;16.67;1.15;;;10.60;99.90;;;;;;4959942;28;20114;-90
2022/09/17 01:01:51;;;;;;;16.95;1.45;;;10.60;99.90;;;;;;4954300;28;20133;-90
2022/09/17 01:04:19;;;;;;;16.27;0.75;;;10.60;99.90;;;;;;4972810;28;20059;-91
2022/09/17 01:07:08;;;;;;;15.45;0.93;;;10.60;99.90;;;;;;4960901;28;20035;-90
2022/09/17 01:09:42;;;;;;;11.05;0.70;;;10.50;99.90;;;;;;4958850;28;20062;-90
2022/09/17 01:12:07;;;;;;;15.60;0.90;;;10.50;99.90;;;;;;4964591;28;20025;-91
2022/09/17 01:14:42;;;;;;;9.20;1.25;;;10.40;99.90;;;;;;4958229;28;20027;-91
2022/09/17 01:17:26;;;;;;;15.18;1.38;;;10.50;99.90;;;;;;4970622;28;20026;-90
2022/09/17 01:20:08;;;;;;;11.73;0.88;;;10.40;99.90;;;;;;4970899;28;20034;-91
2022/09/17 01:23:04;;;;;;;16.40;0.85;;;10.40;99.90;;;;;;4971356;28;20031;-91
2022/09/17 01:25:51;;;;;;;10.68;0.57;;;10.40;99.90;;;;;;4951701;28;20024;-90
2022/09/17 01:28:48;;;;;;;13.85;0.60;;;10.40;99.90;;;;;;4958369;28;20085;-90
2022/09/17 01:31:24;;;;;;;9.32;0.50;;;10.40;99.90;;;;;;4966095;28;20023;-90
2022/09/17 01:34:22;;;;;;;13.43;0.90;;;10.40;99.90;;;;;;4968654;28;20039;-88
2022/09/17 01:36:59;;;;;;;7.55;0.70;;;10.40;99.90;;;;;;4915155;28;20048;-89
2022/09/17 01:39:41;;;;;;;16.90;1.60;;;10.40;99.90;;;;;;4961871;28;20527;-91
2022/09/17 01:42:47;;;;;;;10.32;0.70;;;10.40;99.90;;;;;;4954860;28;20034;-90
2022/09/17 01:45:26;;;;;;;9.35;0.65;;;10.40;99.90;;;;;;4953193;28;20125;-89
2022/09/17 01:48:04;;;;;;;12.13;0.70;;;10.40;99.90;;;;;;4971587;28;20495;-88
2022/09/17 01:50:35;;;;;;;14.48;0.98;;;10.40;99.90;;;;;;4970792;28;20038;-90
2022/09/17 01:53:03;;;;;;;10.50;0.90;;;10.40;99.90;;;;;;4967381;28;20027;-90
2022/09/17 01:55:32;;;;;;;8.25;0.50;;;10.30;99.90;;;;;;4956657;28;20911;-89
2022/09/17 01:58:05;;;;;;;12.65;0.80;;;10.30;99.90;;;;;;4970571;28;20106;-91
2022/09/17 02:00:31;;;;;;;8.95;0.60;;;10.30;99.90;;;;;;4970897;28;20023;-89
2022/09/17 02:03:08;;;;;;;15.02;0.70;;;10.20;99.90;;;;;;4956427;28;20039;-91
2022/09/17 02:05:42;;;;;;;9.73;0.95;;;10.20;99.90;;;;;;4964625;28;20062;-90
2022/09/17 02:08:12;;;;;;;14.32;0.80;;;10.20;99.90;;;;;;4968818;28;20046;-91
2022/09/17 02:10:44;;;;;;;4.85;0.45;;;10.20;99.90;;;;;;4967782;28;20492;-92
2022/09/17 02:13:27;;;;;;;8.25;0.55;;;10.20;99.90;;;;;;4969858;28;20026;-92
2022/09/17 02:16:02;;;;;;;7.35;0.90;;;10.10;99.90;;;;;;4953346;28;20613;-90
2022/09/17 02:18:32;;;;;;;6.93;0.50;;;10.10;99.90;;;;;;4965095;28;20507;-89
2022/09/17 02:21:18;;;;;;;8.30;0.60;;;10.10;99.90;;;;;;4961148;28;20062;-89
2022/09/17 02:24:14;;;;;;;11.40;0.93;;;10.10;99.90;;;;;;4953267;28;20403;-91
2022/09/17 02:26:47;;;;;;;8.85;0.55;;;10.10;99.90;;;;;;4931651;28;20043;-90
2022/09/17 02:29:28;;;;;;;12.60;0.52;;;10.00;99.90;;;;;;4962498;28;20046;-89
2022/09/17 02:31:54;;;;;;;7.20;0.45;;;10.00;99.90;;;;;;4970048;28;21019;-90
2022/09/17 02:34:21;;;;;;;10.18;0.47;;;10.00;99.90;;;;;;4969957;28;20026;-90
2022/09/17 02:36:46;;;;;;;11.43;0.75;;;10.00;99.90;;;;;;4965585;28;20048;-90
2022/09/17 02:39:12;;;;;;;9.77;1.10;;;10.00;99.90;;;;;;4969138;28;20432;-91
2022/09/17 02:41:55;;;;;;;11.65;1.00;;;10.10;99.90;;;;;;4955336;28;20042;-89
2022/09/17 02:44:29;;;;;;;14.88;0.88;;;10.10;99.90;;;;;;4952618;28;20043;-90
2022/09/17 02:47:17;;;;;;;16.33;1.10;;;10.10;99.90;;;;;;4967521;28;20035;-90
2022/09/17 02:49:57;;;;;;;12.43;0.80;;;10.10;99.90;;;;;;4964141;28;20034;-90
2022/09/17 02:52:48;;;;;;;13.63;0.82;;;10.10;99.90;;;;;;4969109;28;20023;-90
2022/09/17 02:55:24;;;;;;;6.82;0.60;;;10.10;99.90;;;;;;4967072;28;20110;-90
2022/09/17 02:57:49;;;;;;;10.00;0.85;;;10.10;99.90;;;;;;4948407;29;20082;-90
2022/09/17 03:00:17;;;;;;;10.90;1.27;;;10.10;99.90;;;;;;4961314;28;20420;-91
2022/09/17 03:02:54;;;;;;;10.00;0.50;;;10.10;99.90;;;;;;4948624;28;20027;-89
2022/09/17 03:05:21;;;;;;;8.75;0.52;;;10.10;99.90;;;;;;4968852;28;20114;-90
2022/09/17 03:07:47;;;;;;;17.20;0.98;;;10.10;99.90;;;;;;4971076;28;20034;-89
2022/09/17 03:10:13;;;;;;;8.25;0.65;;;10.10;99.90;;;;;;4962130;28;20025;-90
2022/09/17 03:12:39;;;;;;;9.73;0.60;;;10.00;99.90;;;;;;4967444;28;20035;-91
2022/09/17 03:15:06;;;;;;;8.73;0.93;;;10.00;99.90;;;;;;4952735;28;20027;-91
2022/09/17 03:17:31;;;;;;;7.68;1.20;;;9.90;99.90;;;;;;4966782;28;20428;-92
2022/09/17 03:19:57;;;;;;;16.90;1.00;;;9.90;99.90;;;;;;4969510;28;20023;-90
2022/09/17 03:22:22;;;;;;;6.45;0.50;;;9.90;99.90;;;;;;4968591;28;20019;-90
2022/09/17 03:24:48;;;;;;;13.27;0.65;;;9.90;99.90;;;;;;4971122;28;20034;-91
2022/09/17 03:27:14;;;;;;;9.60;0.70;;;9.90;99.90;;;;;;4960371;28;20093;-90
2022/09/17 03:29:39;;;;;;;13.48;0.68;;;9.80;99.90;;;;;;4949795;28;20047;-90
2022/09/17 03:32:05;;;;;;;9.57;0.57;;;9.80;99.90;;;;;;4971795;28;20432;-91
2022/09/17 03:34:30;;;;;;;8.90;0.40;;;9.80;99.90;;;;;;4954990;28;20027;-90
2022/09/17 03:36:56;;;;;;;10.80;0.70;;;9.80;99.90;;;;;;4968414;28;20027;-91
2022/09/17 03:39:22;;;;;;;12.70;1.10;;;9.80;99.90;;;;;;4971189;28;20825;-90
2022/09/17 03:41:47;;;;;;;10.18;0.70;;;9.80;99.90;;;;;;4951047;28;20038;-90
2022/09/17 03:44:14;;;;;;;8.32;0.45;;;9.80;99.90;;;;;;4955688;28;20018;-91
2022/09/17 03:46:40;;;;;;;7.65;0.60;;;9.80;99.90;;;;;;4952628;28;20039;-90
2022/09/17 03:49:06;;;;;;;13.18;0.70;;;9.80;99.90;;;;;;4954660;28;20133;-90
2022/09/17 03:51:31;;;;;;;9.27;0.50;;;9.80;99.90;;;;;;4966098;28;20027;-91
2022/09/17 03:53:57;;;;;;;8.98;0.65;;;9.80;99.90;;;;;;4957783;28;20023;-90
2022/09/17 03:56:22;;;;;;;9.00;0.50;;;9.80;99.90;;;;;;4956283;28;20027;-91
2022/09/17 03:58:48;;;;;;;9.35;0.70;;;9.80;99.90;;;;;;4960416;28;20114;-91
2022/09/17 04:01:14;;;;;;;15.90;0.75;;;9.80;99.90;;;;;;4953916;28;20034;-91
2022/09/17 04:03:39;;;;;;;9.55;0.77;;;9.80;99.90;;;;;;4951895;28;20037;-91
2022/09/17 04:06:05;;;;;;;7.00;0.60;;;9.70;99.90;;;;;;4955087;28;20030;-91
2022/09/17 04:08:31;;;;;;;11.65;1.13;;;9.70;99.90;;;;;;4965655;28;20039;-90
2022/09/17 04:10:57;;;;;;;13.52;0.63;;;9.70;99.90;;;;;;4959221;28;20468;-91
2022/09/17 04:13:22;;;;;;;12.05;0.63;;;9.70;99.90;;;;;;4959397;28;20121;-90
2022/09/17 04:15:48;;;;;;;8.90;0.60;;;9.70;99.90;;;;;;4957481;28;20022;-90
2022/09/17 04:18:14;;;;;;;8.35;0.60;;;9.70;99.90;;;;;;4969839;28;20038;-90
2022/09/17 04:20:40;;;;;;;7.50;0.40;;;9.60;99.90;;;;;;4949818;28;20034;-89
2022/09/17 04:23:08;;;;;;;5.55;0.50;;;9.60;99.90;;;;;;4971192;28;20028;-91
2022/09/17 04:25:34;;;;;;;6.65;0.43;;;9.60;99.90;;;;;;4957023;28;20547;-90
2022/09/17 04:27:59;;;;;;;7.55;0.38;;;9.60;99.90;;;;;;4950670;28;20130;-91
2022/09/17 04:30:25;;;;;;;8.88;0.77;;;9.60;99.90;;;;;;4960326;28;20033;-91
2022/09/17 04:32:50;;;;;;;5.60;0.30;;;9.60;99.90;;;;;;4962684;28;20097;-90
2022/09/17 04:35:16;;;;;;;10.35;0.50;;;9.60;99.90;;;;;;4971587;28;20022;-92
2022/09/17 04:37:41;;;;;;;11.40;0.82;;;9.60;99.90;;;;;;4954990;28;22292;-90
2022/09/17 04:40:07;;;;;;;7.93;0.40;;;9.60;99.90;;;;;;4958859;28;20081;-89
2022/09/17 04:42:33;;;;;;;9.32;0.47;;;9.60;99.90;;;;;;4971028;28;20175;-90
2022/09/17 04:44:58;;;;;;;6.13;0.93;;;9.60;99.90;;;;;;4959235;28;20126;-90
2022/09/17 04:47:25;;;;;;;8.68;0.88;;;9.60;99.90;;;;;;4962833;28;20030;-91
2022/09/17 04:49:50;;;;;;;7.85;0.70;;;9.60;99.90;;;;;;4957344;28;21011;-89
2022/09/17 04:52:16;;;;;;;10.13;0.47;;;9.70;99.90;;;;;;4971554;28;20062;-90
2022/09/17 04:54:42;;;;;;;7.97;0.40;;;9.70;99.90;;;;;;4974549;28;20110;-91
2022/09/17 04:57:07;;;;;;;6.30;0.50;;;9.70;99.90;;;;;;4970656;28;20086;-90
2022/09/17 04:59:33;;;;;;;12.43;0.50;;;9.70;99.90;;;;;;4953823;28;20030;-90
2022/09/17 05:01:58;;;;;;;8.30;0.82;;;9.70;99.90;;;;;;4964833;28;20047;-90
2022/09/17 05:04:24;;;;;;;6.88;0.75;;;9.70;99.90;;;;;;4966562;28;20027;-91
2022/09/17 05:06:49;;;;;;;9.88;0.82;;;9.70;99.90;;;;;;4974363;28;20031;-90
2022/09/17 05:09:15;;;;;;;6.15;0.60;;;9.70;99.90;;;;;;4958390;28;20031;-90
2022/09/17 05:11:41;;;;;;;7.10;0.52;;;9.70;99.90;;;;;;4965203;28;20030;-91
2022/09/17 05:14:06;;;;;;;11.20;0.43;;;9.70;99.90;;;;;;4959689;28;20105;-91
2022/09/17 05:16:32;;;;;;;12.60;0.80;;;9.80;99.90;;;;;;4969753;28;20025;-90
2022/09/17 05:18:57;;;;;;;10.00;0.85;;;9.70;99.90;;;;;;4959159;28;20026;-90
2022/09/17 05:21:23;;;;;;;6.72;0.40;;;9.70;99.90;;;;;;4965308;28;20024;-90
2022/09/17 05:23:49;;;;;;;5.47;0.40;;;9.70;99.90;;;;;;4966356;28;20126;-89
2022/09/17 05:26:14;;;;;;;8.82;0.47;;;9.70;99.90;;;;;;4958121;28;20054;-89
2022/09/17 05:28:41;;;;;;;7.65;1.05;;;9.70;99.90;;;;;;4956952;28;20050;-89
2022/09/17 05:31:07;;;;;;;6.65;0.40;;;9.70;99.90;;;;;;4954651;28;20027;-89
2022/09/17 05:33:32;;;;;;;9.98;0.95;;;9.70;99.90;;;;;;4955522;28;20101;-88
2022/09/17 05:35:58;;;;;;;9.77;0.90;;;9.70;99.90;;;;;;4968163;28;20098;-88
2022/09/17 05:38:24;;;;;;;8.05;0.50;;;9.70;99.90;;;;;;4952935;28;20038;-89
2022/09/17 05:40:50;;;;;;;6.60;0.40;;;9.70;99.90;;;;;;4955688;28;20538;-90
2022/09/17 05:43:16;;;;;;;8.55;0.70;;;9.70;99.90;;;;;;4968904;28;20046;-90
2022/09/17 05:45:42;;;;;;;9.95;0.93;;;9.70;99.90;;;;;;4968345;28;20023;-91
2022/09/17 05:48:11;;;;;;;9.23;0.55;;;9.70;99.90;;;;;;4959561;28;20537;-90
2022/09/17 05:50:37;;;;;;;6.13;0.38;;;9.70;99.90;;;;;;4966831;28;20038;-89
2022/09/17 05:53:09;;;;;;;12.52;0.65;;;9.80;99.90;;;;;;4967443;28;20027;-91
2022/09/17 05:55:34;;;;;;;16.60;0.77;;;9.80;99.90;;;;;;4974128;28;20487;-90
2022/09/17 05:58:07;;;;;;;6.28;0.52;;;9.90;99.90;;;;;;4971858;28;20050;-90
2022/09/17 06:00:32;;;;;;;7.28;0.52;;;10.00;99.90;;;;;;4966388;28;20088;-91
2022/09/17 06:02:58;;;;;;;10.52;0.63;;;10.00;99.90;;;;;;4968245;28;20079;-91
2022/09/17 06:05:23;;;;;;;6.93;0.43;;;10.00;99.90;;;;;;4969949;28;20045;-91
2022/09/17 06:07:50;;;;;;;6.25;0.57;;;10.00;99.90;;;;;;4952464;28;20030;-90
2022/09/17 06:10:15;;;;;;;3.63;0.60;;;10.00;99.90;;;;;;4952276;28;20030;-90
2022/09/17 06:12:41;;;;;;;8.88;0.70;;;10.10;99.90;;;;;;4951364;28;20030;-92
2022/09/17 06:15:07;;;;;;;7.22;0.52;;;10.10;99.90;;;;;;4956258;28;20375;-92
2022/09/17 06:17:35;;;;;;;4.10;0.40;;;10.20;99.90;;;;;;4957753;28;20026;-91
2022/09/17 06:20:02;;;;;;;10.93;0.50;;;10.30;99.90;;;;;;4953900;28;20031;-90
2022/09/17 06:22:27;;;;;;;8.10;0.47;;;10.30;99.90;;;;;;4957600;28;20391;-90
2022/09/17 06:24:53;;;;;;;7.93;0.60;;;10.40;99.90;;;;;;4947857;28;20126;-91
2022/09/17 06:27:18;;;;;;;8.45;0.60;;;10.50;99.90;;;;;;4953449;28;22295;-90
2022/09/17 06:29:44;;;;;;;6.78;0.40;;;10.60;99.90;;;;;;4961746;28;20047;-92
2022/09/17 06:32:11;;;;;;;10.40;0.70;;;10.60;99.90;;;;;;4959715;28;20027;-91
2022/09/17 06:34:38;;;;;;;12.90;0.60;;;10.70;99.90;;;;;;4956864;28;20037;-90
2022/09/17 06:37:03;;;;;;;9.60;0.50;;;10.80;99.90;;;;;;4952889;28;20077;-90
2022/09/17 06:39:29;;;;;;;7.63;0.40;;;10.90;99.90;;;;;;4955129;28;20519;-91
2022/09/17 06:41:54;;;;;;;4.22;0.85;;;11.00;99.90;;;;;;4956082;28;20472;-91
2022/09/17 06:44:20;;;;;;;3.63;0.30;;;11.10;99.90;;;;;;4955898;28;20030;-92
2022/09/17 06:46:48;;;;;;;6.97;0.35;;;11.10;99.90;;;;;;4955183;28;20041;-91
2022/09/17 06:49:16;;;;;;;9.98;0.85;;;11.10;99.90;;;;;;4952515;28;20031;-91
2022/09/17 06:51:42;;;;;;;5.40;0.38;;;11.10;99.90;;;;;;4951852;28;20033;-89
2022/09/17 06:54:08;;;;;;;8.75;0.88;;;11.20;99.90;;;;;;4950341;28;20034;-89
2022/09/17 06:56:33;;;;;;;4.63;0.30;;;11.30;99.90;;;;;;4952259;28;20018;-88
2022/09/17 06:59:00;;;;;;;6.15;0.40;;;11.30;99.90;;;;;;4950972;28;20109;-82
2022/09/17 07:01:25;;;;;;;6.75;0.30;;;11.40;99.90;;;;;;4951287;28;20055;-82
2022/09/17 07:03:51;;;;;;;8.80;0.70;;;11.50;99.90;;;;;;4948259;28;20027;-81
2022/09/17 07:06:17;;;;;;;11.93;0.73;;;11.60;99.90;;;;;;4950140;28;20027;-82
2022/09/17 07:08:42;;;;;;;6.10;0.77;;;11.60;99.90;;;;;;4957821;28;20499;-89
2022/09/17 07:11:08;;;;;;;6.03;0.50;;;11.70;99.90;;;;;;4955037;28;20019;-85
2022/09/17 07:13:34;;;;;;;6.35;0.28;;;11.80;99.90;;;;;;4949238;28;20209;-89
2022/09/17 07:16:01;;;;;;;6.80;0.30;;;11.80;99.90;;;;;;4967497;28;20027;-90
2022/09/17 07:18:27;;;;;;;5.15;0.20;;;11.90;99.90;;;;;;4955841;28;20114;-90
2022/09/17 07:20:54;;;;;;;7.35;0.50;;;12.00;99.90;;;;;;4954625;28;20092;-90
2022/09/17 07:23:25;;;;;;;3.45;0.20;;;12.10;99.90;;;;;;4950318;28;20114;-90
2022/09/17 07:26:04;;;;;;;5.05;0.38;;;12.10;99.90;;;;;;4958398;28;20023;-89
2022/09/17 07:28:30;;;;;;;5.63;1.17;;;12.10;99.90;;;;;;4965893;28;20134;-88
2022/09/17 07:30:56;;;;;;;6.05;0.65;;;12.10;99.90;;;;;;4957714;28;20172;-89
2022/09/17 07:33:24;;;;;;;8.40;0.60;;;12.30;99.90;;;;;;4952649;28;20060;-83
2022/09/17 07:35:57;;;;;;;9.00;0.60;;;12.40;99.90;;;;;;4954650;28;20141;-85
2022/09/17 07:38:23;;;;;;;5.72;0.20;;;12.50;99.90;;;;;;4963932;28;20027;-89
2022/09/17 07:41:12;;;;;;;5.05;0.50;;;12.60;99.90;;;;;;4945507;28;20046;-89
2022/09/17 07:43:37;;;;;;;5.53;0.20;;;12.80;99.90;;;;;;4951625;28;20131;-90
2022/09/17 07:46:04;;;;;;;7.05;0.50;;;12.90;99.90;;;;;;4951528;28;20050;-89
2022/09/17 07:48:30;;;;;;;6.35;0.30;;;13.00;99.90;;;;;;4952558;28;20046;-88
2022/09/17 07:50:56;;;;;;;4.57;0.35;;;13.10;99.90;;;;;;4948578;28;20031;-93
2022/09/17 07:53:22;;;;;;;4.47;0.30;;;13.30;99.90;;;;;;4955653;28;20549;-91
2022/09/17 07:55:58;;;;;;;9.02;1.98;;;13.40;99.90;;;;;;4969377;28;20031;-91
2022/09/17 07:58:32;;;;;;;8.07;0.30;;;13.50;99.90;;;;;;4952352;28;20050;-88
2022/09/17 08:01:07;;;;;;;4.07;0.30;;;13.40;99.90;;;;;;4966474;28;20027;-91
2022/09/17 08:03:33;;;;;;;6.85;0.30;;;13.40;99.90;;;;;;4947279;28;20067;-90
2022/09/17 08:06:06;;;;;;;6.22;0.45;;;13.40;99.90;;;;;;4962467;28;20023;-91
2022/09/17 08:08:33;;;;;;;6.25;0.30;;;13.40;99.90;;;;;;4965417;28;20050;-90
2022/09/17 08:11:04;;;;;;;3.92;0.43;;;13.40;99.90;;;;;;4951878;28;20085;-91
2022/09/17 08:13:30;;;;;;;8.40;0.50;;;13.40;99.90;;;;;;4956872;28;20178;-91
2022/09/17 08:16:00;;;;;;;8.85;1.70;;;13.50;99.90;;;;;;4953630;28;20092;-90
2022/09/17 08:18:27;;;;;;;4.40;0.30;;;13.50;99.90;;;;;;4966636;28;20492;-89
2022/09/17 08:20:56;;;;;;;5.80;0.40;;;13.50;99.90;;;;;;4953219;28;20019;-91
2022/09/17 08:23:22;;;;;;;6.65;0.40;;;13.60;99.90;;;;;;4967507;28;20376;-93
2022/09/17 08:25:54;;;;;;;3.35;0.20;;;13.60;99.90;;;;;;4955869;28;20030;-92
2022/09/17 08:28:20;;;;;;;;;;;13.60;99.90;;;;;;4974529;23;20503;-90
2022/09/17 08:30:47;;;;;;;2.38;0.10;;;13.60;99.90;;;;;;4969331;28;19921;-89
2022/09/17 08:33:12;;;;;;;7.25;0.28;;;13.70;99.90;;;;;;4954403;28;20031;-89
2022/09/17 08:35:38;;;;;;;7.95;0.35;;;13.70;99.90;;;;;;4954303;28;20106;-89
2022/09/17 08:38:03;;;;;;;4.13;0.20;;;13.70;99.90;;;;;;4953089;28;20023;-89
2022/09/17 08:40:30;;;;;;;3.60;0.20;;;13.80;99.90;;;;;;4963053;28;20023;-87
2022/09/17 08:43:01;;;;;;;4.15;0.30;;;13.90;99.90;;;;;;4953804;28;20031;-90
2022/09/17 08:45:28;;;;;;;4.57;0.20;;;14.00;99.90;;;;;;4966153;28;20070;-89
2022/09/17 08:48:09;;;;;;;6.00;0.28;;;14.00;99.90;;;;;;4955083;28;20042;-88
2022/09/17 08:50:40;;;;;;;3.72;0.22;;;14.00;99.90;;;;;;4953712;28;20081;-86
2022/09/17 08:53:24;;;;;;;3.15;0.40;;;14.10;99.90;;;;;;4954867;28;20031;-85
2022/09/17 08:56:10;;;;;;;4.35;0.20;;;14.10;99.90;;;;;;4970952;28;20031;-87
2022/09/17 08:58:55;;;;;;;5.32;0.30;;;14.20;99.90;;;;;;4967528;28;20050;-86
2022/09/17 09:01:50;;;;;;;4.63;0.20;;;14.30;99.90;;;;;;4958779;28;20030;-86
2022/09/17 09:04:44;;;;;;;5.57;0.30;;;14.40;99.90;;;;;;4952361;28;20027;-89
2022/09/17 09:07:16;;;;;;;4.82;0.20;;;14.60;99.90;;;;;;4968805;28;20455;-84
2022/09/17 09:09:50;;;;;;;5.82;0.30;;;14.90;99.90;;;;;;4947958;28;20031;-87
2022/09/17 09:12:25;;;;;;;2.65;0.25;;;15.00;99.90;;;;;;4952552;28;20039;-87
2022/09/17 09:15:00;;;;;;;2.85;0.10;;;15.00;99.90;;;;;;4967044;28;20031;-86
2022/09/17 09:17:33;;;;;;;2.00;0.20;;;14.90;99.90;;;;;;4953833;28;20488;-92
2022/09/17 09:19:58;;;;;;;6.30;0.50;;;14.80;99.90;;;;;;4965278;28;20062;-91
2022/09/17 09:22:24;;;;;;;3.97;0.20;;;14.80;99.90;;;;;;4973389;28;20023;-89
2022/09/17 09:25:21;;;;;;;4.57;0.30;;;14.80;99.90;;;;;;4973449;28;20170;-89
2022/09/17 09:28:06;;;;;;;2.90;0.20;;;15.00;99.90;;;;;;4972762;28;20042;-90
2022/09/17 09:31:01;;;;;;;3.80;0.20;;;15.10;99.90;;;;;;4991623;28;20054;-92
2022/09/17 09:33:31;;;;;;;1.65;0.10;;;14.90;99.90;;;;;;4981218;28;20435;-90
2022/09/17 09:35:57;;;;;;;1.38;0.10;;;14.60;99.90;;;;;;4988248;28;20042;-89
2022/09/17 09:38:56;;;;;;;0.52;0.10;;;14.30;99.90;;;;;;4971993;28;20062;-92
2022/09/17 09:41:39;;;;;;;6.97;0.60;;;13.50;99.90;;;;;;4969439;28;22145;-92
2022/09/17 09:44:09;;;;;;;;;;;12.40;99.90;;;;;;4990111;28;20053;-91
2022/09/17 09:47:02;;;;;;;4.53;0.20;;;11.90;99.90;;;;;;4973225;28;19996;-91
2022/09/17 09:49:49;;;;;;;4.22;0.30;;;11.60;99.90;;;;;;4982884;28;20034;-93
2022/09/17 09:52:47;;;;;;;5.93;0.55;;;11.60;99.90;;;;;;4992056;28;20038;-91
2022/09/17 09:55:31;;;;;;;3.33;0.20;;;11.80;99.90;;;;;;4966800;28;20113;-92
2022/09/17 09:58:08;;;;;;;3.72;0.28;;;12.10;99.90;;;;;;4986040;28;20097;-89
2022/09/17 10:00:41;;;;;;;3.53;0.20;;;12.40;99.90;;;;;;4978278;28;20015;-91
2022/09/17 10:03:23;;;;;;;3.15;0.20;;;12.60;99.90;;;;;;4990349;28;20022;-90
2022/09/17 10:06:08;;;;;;;3.90;0.40;;;12.80;99.90;;;;;;4973635;28;20142;-90
2022/09/17 10:09:01;;;;;;;5.35;0.20;;;12.90;99.90;;;;;;4965791;28;20123;-90
2022/09/17 10:11:28;;;;;;;;;;;13.10;99.90;;;;;;4968413;28;20437;-91
2022/09/17 10:14:24;;;;;;;1.75;0.15;;;13.30;99.90;;;;;;4996031;28;19920;-90
2022/09/17 10:17:09;;;;;;;1.75;0.10;;;13.60;99.90;;;;;;5004912;28;20067;-90
2022/09/17 10:19:35;;;;;;;3.60;0.40;;;13.80;99.90;;;;;;5002688;28;20033;-91
2022/09/17 10:22:32;;;;;;;1.95;0.10;;;14.00;99.90;;;;;;4995250;28;20026;-90
2022/09/17 10:24:59;;;;;;;4.15;0.20;;;14.20;99.90;;;;;;4994159;28;20030;-90
2022/09/17 10:27:26;;;;;;;2.22;0.20;;;14.30;99.90;;;;;;4994238;28;20192;-90
2022/09/17 10:30:10;;;;;;;4.47;0.20;;;14.40;99.90;;;;;;4994400;28;20113;-89
2022/09/17 10:32:36;;;;;;;2.67;0.20;;;14.50;99.90;;;;;;4972269;28;20038;-88
2022/09/17 10:35:13;;;;;;;3.25;0.25;;;14.70;99.90;;;;;;4991643;28;20035;-89
2022/09/17 10:37:47;;;;;;;3.30;0.10;;;14.80;99.90;;;;;;4992943;28;20679;-91
2022/09/17 10:40:19;;;;;;;2.83;0.20;;;15.00;99.90;;;;;;4974983;28;20026;-90
2022/09/17 10:43:15;;;;;;;4.77;0.40;;;15.20;99.90;;;;;;5003123;28;20037;-91
2022/09/17 10:45:43;;;;;;;3.30;0.10;;;15.20;99.90;;;;;;4983870;28;20061;-91
2022/09/17 10:48:19;;;;;;;1.95;0.20;;;15.00;99.90;;;;;;4974451;28;20030;-90
2022/09/17 10:50:50;;;;;;;3.30;0.20;;;14.70;99.90;;;;;;4990170;28;20107;-92
2022/09/17 10:53:18;;;;;;;3.13;0.10;;;14.40;99.90;;;;;;4971766;28;20035;-91
2022/09/17 10:56:00;;;;;;;6.32;0.20;;;14.10;99.90;;;;;;4970142;28;20430;-95
2022/09/17 10:58:54;;;;;;;2.22;0.10;;;13.90;99.90;;;;;;4970616;28;20598;-90
2022/09/17 11:01:21;;;;;;;3.22;0.20;;;13.80;99.90;;;;;;4975001;28;20026;-91
2022/09/17 11:04:13;;;;;;;3.00;0.20;;;13.80;99.90;;;;;;4986187;28;20100;-90
2022/09/17 11:07:12;;;;;;;5.20;0.30;;;14.00;99.90;;;;;;4974825;28;20038;-93
2022/09/17 11:09:45;;;;;;;3.53;0.20;;;14.30;99.90;;;;;;4959291;28;20046;-89
2022/09/17 11:12:34;;;;;;;2.45;0.13;;;14.50;99.90;;;;;;4969885;28;20030;-91
2022/09/17 11:15:13;;;;;;;7.63;0.63;;;14.70;99.90;;;;;;4970285;28;20406;-91
2022/09/17 11:17:48;;;;;;;7.60;0.20;;;14.60;99.90;;;;;;4988024;28;20038;-90
2022/09/17 11:20:45;;;;;;;3.00;0.40;;;14.80;99.90;;;;;;4976243;28;20500;-90
2022/09/17 11:23:48;;;;;;;3.85;0.20;;;15.00;99.90;;;;;;4989562;28;20022;-90
2022/09/17 11:26:39;;;;;;;5.38;0.25;;;15.30;99.90;;;;;;4986393;28;20033;-89
2022/09/17 11:29:47;;;;;;;4.25;0.20;;;15.50;99.90;;;;;;4978677;28;20041;-93
2022/09/17 11:32:43;;;;;;;11.05;1.48;;;15.40;99.90;;;;;;4989610;28;20033;-91
2022/09/17 11:35:23;;;;;;;5.55;0.20;;;15.30;99.90;;;;;;4991241;28;20027;-90
2022/09/17 11:37:51;;;;;;;3.45;0.20;;;15.20;99.90;;;;;;4976014;28;20027;-91
2022/09/17 11:40:29;;;;;;;4.05;0.30;;;15.20;99.90;;;;;;4991983;28;20037;-92
2022/09/17 11:43:01;;;;;;;3.90;0.30;;;15.40;99.90;;;;;;4975897;28;20109;-90
2022/09/17 11:45:32;;;;;;;10.25;0.85;;;15.60;99.90;;;;;;4991274;28;20479;-90
2022/09/17 11:48:12;;;;;;;7.68;1.30;;;15.70;99.90;;;;;;4989269;28;20070;-90
2022/09/17 11:50:49;;;;;;;4.63;0.30;;;15.80;99.60;;;;;;4975190;28;20027;-90
2022/09/17 11:53:22;;;;;;;6.78;0.50;;;15.90;98.40;;;;;;4974603;28;20065;-91
2022/09/17 11:55:53;;;;;;;3.10;0.20;;;15.90;97.90;;;;;;4972799;28;20031;-89
2022/09/17 11:59:01;;;;;;;8.68;0.82;;;16.00;97.60;;;;;;4974666;28;20063;-92
2022/09/17 12:01:36;;;;;;;4.07;0.30;;;16.10;97.80;;;;;;4974570;28;20053;-89
2022/09/17 12:04:34;;;;;;;4.30;0.30;;;16.30;97.50;;;;;;4974583;28;20030;-91
2022/09/17 12:07:20;;;;;;;3.05;0.30;;;16.50;97.20;;;;;;4987391;28;20057;-91
2022/09/17 12:09:52;;;;;;;6.43;0.60;;;16.30;96.90;;;;;;4979070;28;20038;-92
2022/09/17 12:12:22;;;;;;;5.47;0.40;;;15.70;96.30;;;;;;4974261;28;20495;-91
2022/09/17 12:14:53;;;;;;;3.03;0.38;;;14.40;98.10;;;;;;4978341;28;20490;-93
2022/09/17 12:17:45;;;;;;;7.25;0.40;;;13.70;99.90;;;;;;4969355;28;20034;-94
2022/09/17 12:20:35;;;;;;;3.67;0.30;;;13.00;99.90;;;;;;4973321;28;20057;-94
2022/09/17 12:23:11;;;;;;;3.47;0.30;;;12.60;99.90;;;;;;4975107;28;20027;-93
2022/09/17 12:25:51;;;;;;;2.30;0.20;;;12.30;99.90;;;;;;4971409;28;20121;-93
2022/09/17 12:28:48;;;;;;;4.07;0.28;;;12.10;99.90;;;;;;4990891;28;20054;-93
2022/09/17 12:31:41;;;;;;;6.03;0.90;;;12.10;99.90;;;;;;4940968;28;20046;-93
2022/09/17 12:34:34;;;;;;;3.55;0.30;;;12.30;99.90;;;;;;4976027;28;20102;-93
2022/09/17 12:37:24;;;;;;;4.40;0.30;;;12.70;99.90;;;;;;4971245;28;20030;-93
2022/09/17 12:40:18;;;;;;;4.00;0.30;;;13.20;99.90;;;;;;4988566;28;20023;-90
2022/09/17 12:42:52;;;;;;;4.13;0.40;;;13.50;99.90;;;;;;4990212;28;20399;-92
2022/09/17 12:45:39;;;;;;;3.42;0.32;;;13.70;99.90;;;;;;4986072;28;20386;-93
2022/09/17 12:48:16;;;;;;;4.40;0.30;;;13.80;99.90;;;;;;4984079;28;20045;-90
2022/09/17 12:50:59;;;;;;;5.43;0.32;;;13.80;99.90;;;;;;4975300;28;20109;-93
2022/09/17 12:53:36;;;;;;;5.30;0.35;;;14.00;99.90;;;;;;4971682;28;20076;-90
2022/09/17 12:56:24;;;;;;;4.68;0.35;;;14.20;99.90;;;;;;4979145;28;20034;-91
2022/09/17 12:59:13;;;;;;;6.78;0.70;;;14.20;99.90;;;;;;4987145;28;20030;-94
2022/09/17 13:01:45;;;;;;;4.55;0.30;;;14.20;99.90;;;;;;4993111;28;20037;-92
2022/09/17 13:04:17;;;;;;;;;;;14.20;99.90;;;;;;4985008;28;20026;-91
2022/09/17 13:07:04;;;;;;;7.15;0.30;;;14.20;99.90;;;;;;4984816;28;19911;-89
2022/09/17 13:09:55;;;;;;;5.95;0.30;;;14.40;99.90;;;;;;4982635;28;20086;-91
2022/09/17 13:12:44;;;;;;;5.43;0.20;;;14.50;99.90;;;;;;4980312;28;20023;-90
2022/09/17 13:15:35;;;;;;;4.15;0.28;;;14.50;99.90;;;;;;4982285;28;20022;-90
2022/09/17 13:18:21;;;;;;;4.28;0.20;;;14.70;99.90;;;;;;4975396;28;20026;-92
2022/09/17 13:21:12;;;;;;;4.35;0.15;;;14.90;99.90;;;;;;4989631;28;20029;-90